createdAt,value
2022-12-09T00:01:06.790Z,18.75
2022-12-09T00:03:55.261Z,21.48
2022-12-09T00:06:40.681Z,22.60
2022-12-09T00:09:26.073Z,23.70
2022-12-09T00:12:11.579Z,21.55
2022-12-09T00:14:57.178Z,31.58
2022-12-09T00:17:42.489Z,23.02
2022-12-09T00:20:27.690Z,20.35
2022-12-09T00:23:13.117Z,21.02
2022-12-09T00:25:58.955Z,24.52
2022-12-09T00:28:45.011Z,16.90
2022-12-09T00:31:34.261Z,16.40
2022-12-09T00:34:19.926Z,25.27
2022-12-09T00:37:05.591Z,16.58
2022-12-09T00:39:51.462Z,17.75
2022-12-09T00:42:37.182Z,22.73
2022-12-09T00:45:22.989Z,20.50
2022-12-09T00:48:08.705Z,25.02
2022-12-09T00:50:54.113Z,17.77
2022-12-09T00:53:39.764Z,20.13
2022-12-09T00:56:28.300Z,24.25
2022-12-09T00:59:14.324Z,22.17
2022-12-09T01:02:00.246Z,20.45
2022-12-09T01:04:46.121Z,18.90
2022-12-09T01:07:32.690Z,20.17
2022-12-09T01:10:18.436Z,22.50
2022-12-09T01:13:04.472Z,20.40
2022-12-09T01:15:50.775Z,19.98
2022-12-09T01:18:36.523Z,21.60
2022-12-09T01:21:22.177Z,14.38
2022-12-09T01:24:11.600Z,23.17
2022-12-09T01:26:57.098Z,15.15
2022-12-09T01:29:42.439Z,15.38
2022-12-09T01:32:29.265Z,27.25
2022-12-09T01:35:15.536Z,16.23
2022-12-09T01:38:01.112Z,14.45
2022-12-09T01:40:47.682Z,15.73
2022-12-09T01:43:33.209Z,11.32
2022-12-09T01:46:18.670Z,15.20
2022-12-09T01:49:06.677Z,22.05
2022-12-09T01:52:02.831Z,18.23
2022-12-09T01:54:52.196Z,10.32
2022-12-09T01:57:39.251Z,10.05
2022-12-09T02:00:25.731Z,15.20
2022-12-09T02:03:11.831Z,12.70
2022-12-09T02:05:57.311Z,13.57
2022-12-09T02:08:44.048Z,16.55
2022-12-09T02:11:38.115Z,17.13
2022-12-09T02:14:42.988Z,11.65
2022-12-09T02:17:44.736Z,14.40
2022-12-09T02:20:58.886Z,14.18
2022-12-09T02:23:54.160Z,11.65
2022-12-09T02:27:01.201Z,11.77
2022-12-09T02:30:09.166Z,17.20
2022-12-09T02:33:44.357Z,12.85
2022-12-09T02:36:42.513Z,17.98
2022-12-09T02:39:37.215Z,12.43
2022-12-09T02:42:27.821Z,9.70
2022-12-09T02:45:16.884Z,15.07
2022-12-09T02:48:07.947Z,11.07
2022-12-09T02:50:54.648Z,13.93
2022-12-09T02:53:42.115Z,11.63
2022-12-09T02:56:28.824Z,12.20
2022-12-09T02:59:14.700Z,16.88
2022-12-09T03:02:26.373Z,15.15
2022-12-09T03:05:25.043Z,14.13
2022-12-09T03:08:21.730Z,14.05
2022-12-09T03:11:07.117Z,13.82
2022-12-09T03:14:00.152Z,13.73
2022-12-09T03:17:03.329Z,21.67
2022-12-09T03:19:59.050Z,10.00
2022-12-09T03:22:48.264Z,13.05
2022-12-09T03:25:40.877Z,12.18
2022-12-09T03:28:49.247Z,15.13
2022-12-09T03:31:38.266Z,15.30
2022-12-09T03:34:32.259Z,12.38
2022-12-09T03:37:20.279Z,12.95
2022-12-09T03:40:13.921Z,16.10
2022-12-09T03:43:12.868Z,13.60
2022-12-09T03:45:58.525Z,15.93
2022-12-09T03:48:44.764Z,9.68
2022-12-09T03:52:30.788Z,13.48
2022-12-09T03:55:16.248Z,14.43
2022-12-09T03:58:05.087Z,9.98
2022-12-09T04:00:51.426Z,12.75
2022-12-09T04:03:38.958Z,11.93
2022-12-09T04:06:25.297Z,20.13
2022-12-09T04:09:12.108Z,10.43
2022-12-09T04:11:57.524Z,12.88
2022-12-09T04:14:43.233Z,12.95
2022-12-09T04:17:28.974Z,12.05
2022-12-09T04:20:15.625Z,16.42
2022-12-09T04:23:01.271Z,11.63
2022-12-09T04:25:46.889Z,10.90
2022-12-09T04:28:32.513Z,12.77
2022-12-09T04:31:19.869Z,10.77
2022-12-09T04:34:09.246Z,16.20
2022-12-09T04:36:55.788Z,13.27
2022-12-09T04:39:41.915Z,13.43
2022-12-09T04:42:29.789Z,10.73
2022-12-09T04:45:15.592Z,11.68
2022-12-09T04:48:01.346Z,9.73
2022-12-09T04:50:46.905Z,11.27
2022-12-09T04:53:32.822Z,16.77
2022-12-09T04:56:20.732Z,11.57
2022-12-09T04:59:06.650Z,19.13
2022-12-09T05:01:53.464Z,13.18
2022-12-09T05:04:39.370Z,18.80
2022-12-09T05:07:25.430Z,16.17
2022-12-09T05:10:11.751Z,16.65
2022-12-09T05:12:57.799Z,14.93
2022-12-09T05:15:43.636Z,14.40
2022-12-09T05:18:29.964Z,18.83
2022-12-09T05:21:20.504Z,15.32
2022-12-09T05:24:06.983Z,18.20
2022-12-09T05:26:53.056Z,13.05
2022-12-09T05:29:39.043Z,13.30
2022-12-09T05:32:24.757Z,15.80
2022-12-09T05:35:11.568Z,16.77
2022-12-09T05:37:57.806Z,18.73
2022-12-09T05:40:43.225Z,13.57
2022-12-09T05:43:28.932Z,15.43
2022-12-09T05:46:15.787Z,17.83
2022-12-09T05:49:02.126Z,14.88
2022-12-09T05:51:47.832Z,15.02
2022-12-09T05:54:33.947Z,15.55
2022-12-09T05:57:19.868Z,15.10
2022-12-09T06:00:07.792Z,13.05
2022-12-09T06:02:57.648Z,13.77
2022-12-09T06:05:43.498Z,15.02
2022-12-09T06:08:29.185Z,12.23
2022-12-09T06:11:18.052Z,16.60
2022-12-09T06:14:04.849Z,13.13
2022-12-09T06:16:51.088Z,15.77
2022-12-09T06:19:36.834Z,15.80
2022-12-09T06:22:22.501Z,17.05
2022-12-09T06:25:08.976Z,18.77
2022-12-09T06:27:54.592Z,16.25
2022-12-09T06:30:41.374Z,19.52
2022-12-09T06:33:53.731Z,32.80
2022-12-09T06:36:32.973Z,16.00
2022-12-09T06:39:18.887Z,21.20
2022-12-09T06:42:04.502Z,18.33
2022-12-09T06:44:50.079Z,10.75
2022-12-09T06:47:35.913Z,16.73
2022-12-09T06:50:22.089Z,22.95
2022-12-09T06:53:07.851Z,15.25
2022-12-09T06:55:53.622Z,16.15
2022-12-09T06:58:40.584Z,17.60
2022-12-09T07:01:26.757Z,15.00
2022-12-09T07:04:14.914Z,16.83
2022-12-09T07:07:00.737Z,16.65
2022-12-09T07:09:47.047Z,17.10
2022-12-09T07:12:32.847Z,14.55
2022-12-09T07:15:18.775Z,15.43
2022-12-09T07:18:04.719Z,12.50
2022-12-09T07:20:50.618Z,17.88
2022-12-09T07:23:37.088Z,16.52
2022-12-09T07:26:23.487Z,14.77
2022-12-09T07:29:09.305Z,15.40
2022-12-09T07:31:54.984Z,25.88
2022-12-09T07:34:40.727Z,17.95
2022-12-09T07:37:26.398Z,17.52
2022-12-09T07:40:12.489Z,24.10
2022-12-09T07:42:59.895Z,15.50
2022-12-09T07:45:46.379Z,28.98
2022-12-09T07:48:32.070Z,20.83
2022-12-09T07:51:18.021Z,20.60
2022-12-09T07:54:04.250Z,24.58
2022-12-09T07:56:50.698Z,15.10
2022-12-09T07:59:36.627Z,19.10
2022-12-09T08:02:22.696Z,22.70
2022-12-09T08:05:09.312Z,19.88
2022-12-09T08:07:56.146Z,16.35
2022-12-09T08:10:44.031Z,20.30
2022-12-09T08:13:29.867Z,13.75
2022-12-09T08:16:20.411Z,16.20
2022-12-09T08:19:06.248Z,20.42
2022-12-09T08:21:54.808Z,15.07
2022-12-09T08:24:41.051Z,19.83
2022-12-09T08:27:26.769Z,15.43
2022-12-09T08:30:13.104Z,18.77
2022-12-09T08:32:59.992Z,25.17
2022-12-09T08:35:45.824Z,18.50
2022-12-09T08:38:32.052Z,17.60
2022-12-09T08:41:36.896Z,19.65
2022-12-09T08:44:24.121Z,16.23
2022-12-09T08:47:10.091Z,20.63
2022-12-09T08:49:56.125Z,17.75
2022-12-09T08:52:43.116Z,19.65
2022-12-09T08:55:28.604Z,23.15
2022-12-09T08:58:14.799Z,18.15
2022-12-09T09:01:00.671Z,26.00
2022-12-09T09:03:48.118Z,18.88
2022-12-09T09:06:34.497Z,18.10
2022-12-09T09:09:21.736Z,19.90
2022-12-09T09:12:08.184Z,20.98
2022-12-09T09:14:54.923Z,21.30
2022-12-09T09:17:40.930Z,17.05
2022-12-09T09:20:28.918Z,16.13
2022-12-09T09:23:15.788Z,26.35
2022-12-09T09:26:01.256Z,21.83
2022-12-09T09:28:47.472Z,23.98
2022-12-09T09:31:34.441Z,20.95
2022-12-09T09:34:21.707Z,20.38
2022-12-09T09:37:08.171Z,20.95
2022-12-09T09:39:54.062Z,26.67
2022-12-09T09:42:48.500Z,23.70
2022-12-09T09:45:33.996Z,24.52
2022-12-09T09:48:24.541Z,25.42
2022-12-09T09:51:19.326Z,23.17
2022-12-09T09:54:08.639Z,26.13
2022-12-09T09:57:16.626Z,23.80
2022-12-09T10:00:37.113Z,21.50
2022-12-09T10:03:52.702Z,14.80
2022-12-09T10:06:51.981Z,18.90
2022-12-09T10:10:13.563Z,19.52
2022-12-09T10:13:21.120Z,18.55
2022-12-09T10:16:13.766Z,20.13
2022-12-09T10:21:55.688Z,18.67
2022-12-09T10:24:49.554Z,20.38
2022-12-09T10:27:39.772Z,15.52
2022-12-09T10:30:28.913Z,18.77
2022-12-09T10:33:29.607Z,17.33
2022-12-09T10:36:33.783Z,27.55
2022-12-09T10:39:22.722Z,24.45
2022-12-09T10:42:34.642Z,22.23
2022-12-09T10:45:21.801Z,16.92
2022-12-09T10:48:19.781Z,20.98
2022-12-09T10:51:18.681Z,15.80
2022-12-09T10:54:27.691Z,23.35
2022-12-09T10:57:13.511Z,32.72
2022-12-09T11:00:08.686Z,20.55
2022-12-09T11:02:56.778Z,24.10
2022-12-09T11:05:43.076Z,22.95
2022-12-09T11:08:30.250Z,19.20
2022-12-09T11:11:16.296Z,17.77
2022-12-09T11:14:02.798Z,19.65
2022-12-09T11:16:51.974Z,23.63
2022-12-09T11:19:39.862Z,14.38
2022-12-09T11:22:40.264Z,24.15
2022-12-09T11:25:30.473Z,17.83
2022-12-09T11:28:15.923Z,21.15
2022-12-09T11:34:23.425Z,20.13
2022-12-09T11:37:11.366Z,17.55
2022-12-09T11:39:56.797Z,19.90
2022-12-09T11:42:42.504Z,23.23
2022-12-09T11:45:38.688Z,25.33
2022-12-09T11:48:36.047Z,27.35
2022-12-09T11:51:30.035Z,27.55
2022-12-09T11:54:24.791Z,26.80
2022-12-09T11:57:27.597Z,67.38
2022-12-09T12:00:18.457Z,67.03
2022-12-09T12:03:13.132Z,84.32
2022-12-09T12:06:02.748Z,71.95
2022-12-09T12:08:54.705Z,55.55
2022-12-09T12:12:23.053Z,47.47
2022-12-09T12:15:22.744Z,41.97
2022-12-09T12:18:15.878Z,25.10
2022-12-09T12:21:13.488Z,35.83
2022-12-09T12:24:26.750Z,16.33
2022-12-09T12:27:20.693Z,14.50
2022-12-09T12:30:10.915Z,19.05
2022-12-09T12:34:00.425Z,16.17
2022-12-09T12:37:19.210Z,18.85
2022-12-09T12:40:29.633Z,19.90
2022-12-09T12:44:15.403Z,17.63
2022-12-09T12:47:25.939Z,19.65
2022-12-09T12:50:14.399Z,15.85
2022-12-09T12:53:21.324Z,20.20
2022-12-09T12:56:17.073Z,18.23
2022-12-09T12:59:11.635Z,12.52
2022-12-09T13:02:15.932Z,18.13
2022-12-09T13:05:13.745Z,20.17
2022-12-09T13:08:09.631Z,14.45
2022-12-09T13:10:58.292Z,22.58
2022-12-09T13:13:51.363Z,19.67
2022-12-09T13:16:40.768Z,15.65
2022-12-09T13:19:38.802Z,25.05
2022-12-09T13:22:38.389Z,18.42
2022-12-09T13:25:35.305Z,20.83
2022-12-09T13:28:33.925Z,23.65
2022-12-09T13:31:22.859Z,19.30
2022-12-09T13:34:42.731Z,22.48
2022-12-09T13:37:31.372Z,17.05
2022-12-09T13:40:34.942Z,16.58
2022-12-09T13:43:31.804Z,21.10
2022-12-09T13:46:23.469Z,20.45
2022-12-09T13:49:24.050Z,25.35
2022-12-09T13:52:09.730Z,18.98
2022-12-09T13:54:56.544Z,16.08
2022-12-09T13:57:53.390Z,16.80
2022-12-09T14:00:43.099Z,19.55
2022-12-09T14:03:35.671Z,17.77
2022-12-09T14:06:26.580Z,17.00
2022-12-09T14:09:37.379Z,16.38
2022-12-09T14:12:25.678Z,13.77
2022-12-09T14:15:23.294Z,22.20
2022-12-09T14:18:28.776Z,25.70
2022-12-09T14:21:33.655Z,15.77
2022-12-09T14:24:22.242Z,22.95
2022-12-09T14:27:10.946Z,25.25
2022-12-09T14:30:00.653Z,25.05
2022-12-09T14:32:49.285Z,27.55
2022-12-09T14:35:41.563Z,31.83
2022-12-09T14:38:37.473Z,23.60
2022-12-09T14:41:40.569Z,27.67
2022-12-09T14:44:35.644Z,27.75
2022-12-09T14:47:31.046Z,21.65
2022-12-09T14:50:22.685Z,25.13
2022-12-09T14:53:23.368Z,29.30
2022-12-09T14:56:17.697Z,22.83
2022-12-09T14:59:07.576Z,25.55
2022-12-09T15:02:19.546Z,26.05
2022-12-09T15:05:16.682Z,28.38
2022-12-09T15:08:02.099Z,24.40
2022-12-09T15:10:47.486Z,28.38
2022-12-09T15:13:34.665Z,28.85
2022-12-09T15:16:24.741Z,23.92
2022-12-09T15:19:51.235Z,32.83
2022-12-09T15:22:30.277Z,37.85
2022-12-09T15:25:21.128Z,33.92
2022-12-09T15:28:15.344Z,24.75
2022-12-09T15:31:05.134Z,28.05
2022-12-09T15:33:52.975Z,33.65
2022-12-09T15:36:41.907Z,36.47
2022-12-09T15:39:31.433Z,62.72
2022-12-09T15:42:26.094Z,35.20
2022-12-09T15:45:24.455Z,41.80
2022-12-09T15:48:17.386Z,41.10
2022-12-09T15:51:07.445Z,38.85
2022-12-09T15:54:00.082Z,44.15
2022-12-09T15:57:07.664Z,28.83
2022-12-09T15:59:58.224Z,35.97
2022-12-09T16:02:45.907Z,91.82
2022-12-09T16:05:31.566Z,103.03
2022-12-09T16:08:17.352Z,38.25
2022-12-09T16:11:04.351Z,34.30
2022-12-09T16:14:00.691Z,29.75
2022-12-09T16:16:50.432Z,30.10
2022-12-09T16:19:38.175Z,33.63
2022-12-09T16:22:31.912Z,40.75
2022-12-09T16:25:22.122Z,42.20
2022-12-09T16:28:18.482Z,44.25
2022-12-09T16:31:16.904Z,39.25
2022-12-09T16:34:02.637Z,37.10
2022-12-09T16:36:57.137Z,32.08
2022-12-09T16:39:43.105Z,39.65
2022-12-09T16:42:37.932Z,36.20
2022-12-09T16:45:29.977Z,40.13
2022-12-09T16:48:17.458Z,49.55
2022-12-09T16:51:13.829Z,38.80
2022-12-09T16:54:00.105Z,36.25
2022-12-09T16:56:46.021Z,45.33
2022-12-09T16:59:37.620Z,45.22
2022-12-09T17:02:29.768Z,42.72
2022-12-09T17:05:15.602Z,31.08
2022-12-09T17:08:01.056Z,40.90
2022-12-09T17:10:46.480Z,54.28
2022-12-09T17:13:31.902Z,52.33
2022-12-09T17:16:17.883Z,62.35
2022-12-09T17:19:05.996Z,35.97
2022-12-09T17:21:52.417Z,34.92
2022-12-09T17:24:38.047Z,45.63
2022-12-09T17:27:23.370Z,42.88
2022-12-09T17:30:09.751Z,41.58
2022-12-09T17:32:55.536Z,33.17
2022-12-09T17:35:41.408Z,45.25
2022-12-09T17:38:29.460Z,51.22
2022-12-09T17:41:20.042Z,44.58
2022-12-09T17:44:05.759Z,46.03
2022-12-09T17:46:51.426Z,39.20
2022-12-09T17:49:37.111Z,38.63
2022-12-09T17:52:22.757Z,43.38
2022-12-09T17:55:09.225Z,42.50
2022-12-09T17:57:55.071Z,41.72
2022-12-09T18:00:40.779Z,40.10
2022-12-09T18:03:53.842Z,44.33
2022-12-09T18:06:34.796Z,51.83
2022-12-09T18:09:23.647Z,64.10
2022-12-09T18:12:09.116Z,49.13
2022-12-09T18:14:55.416Z,45.97
2022-12-09T18:17:40.650Z,45.65
2022-12-09T18:20:26.170Z,44.50
2022-12-09T18:23:12.216Z,65.45
2022-12-09T18:25:58.676Z,83.05
2022-12-09T18:28:44.609Z,40.90
2022-12-09T18:31:30.222Z,49.58
2022-12-09T18:34:15.999Z,42.35
2022-12-09T18:37:02.669Z,41.50
2022-12-09T18:39:48.223Z,44.55
2022-12-09T18:42:33.641Z,38.25
2022-12-09T18:45:19.199Z,36.88
2022-12-09T18:48:04.800Z,37.33
2022-12-09T18:50:50.278Z,31.63
2022-12-09T18:53:35.790Z,32.42
2022-12-09T18:56:21.402Z,46.08
2022-12-09T18:59:08.215Z,39.42
2022-12-09T19:01:54.799Z,29.48
2022-12-09T19:04:40.541Z,36.28
2022-12-09T19:07:31.984Z,35.90
2022-12-09T19:10:18.007Z,36.70
2022-12-09T19:13:04.927Z,38.20
2022-12-09T19:15:50.556Z,31.75
2022-12-09T19:18:36.431Z,37.45
2022-12-09T19:21:24.085Z,32.00
2022-12-09T19:24:15.949Z,35.72
2022-12-09T19:27:01.136Z,44.35
2022-12-09T19:29:46.613Z,39.58
2022-12-09T19:32:52.462Z,36.78
2022-12-09T19:35:37.626Z,36.80
2022-12-09T19:38:23.622Z,36.95
2022-12-09T19:41:09.450Z,30.05
2022-12-09T19:43:56.744Z,34.30
2022-12-09T19:46:42.409Z,39.35
2022-12-09T19:49:28.394Z,37.92
2022-12-09T19:52:14.039Z,36.22
2022-12-09T19:54:59.636Z,43.50
2022-12-09T19:57:44.968Z,38.08
2022-12-09T20:00:30.492Z,44.92
2022-12-09T20:03:16.278Z,28.23
2022-12-09T20:06:01.598Z,33.42
2022-12-09T20:08:47.678Z,38.28
2022-12-09T20:11:34.622Z,38.78
2022-12-09T20:14:20.286Z,35.75
2022-12-09T20:17:06.122Z,39.30
2022-12-09T20:19:51.740Z,35.53
2022-12-09T20:22:37.270Z,39.30
2022-12-09T20:25:22.662Z,49.30
2022-12-09T20:28:08.488Z,38.35
2022-12-09T20:30:53.892Z,46.65
2022-12-09T20:33:40.178Z,50.95
2022-12-09T20:36:28.184Z,55.15
2022-12-09T20:39:17.592Z,39.88
2022-12-09T20:42:03.231Z,53.90
2022-12-09T20:44:48.739Z,44.47
2022-12-09T20:47:34.672Z,36.83
2022-12-09T20:50:20.571Z,38.47
2022-12-09T20:53:06.387Z,45.83
2022-12-09T20:55:59.451Z,34.95
2022-12-09T20:58:46.529Z,36.00
2022-12-09T21:01:34.296Z,38.88
2022-12-09T21:04:20.261Z,38.85
2022-12-09T21:07:06.258Z,42.05
2022-12-09T21:09:51.576Z,32.33
2022-12-09T21:12:36.937Z,34.65
2022-12-09T21:15:23.546Z,39.97
2022-12-09T21:18:09.753Z,39.35
2022-12-09T21:20:58.056Z,34.83
2022-12-09T21:23:44.270Z,37.47
2022-12-09T21:26:30.012Z,32.72
2022-12-09T21:29:15.950Z,33.10
2022-12-09T21:32:02.111Z,28.75
2022-12-09T21:34:47.702Z,35.35
2022-12-09T21:37:34.773Z,29.70
2022-12-09T21:40:20.382Z,42.22
2022-12-09T21:43:06.823Z,33.30
2022-12-09T21:45:52.520Z,29.55
2022-12-09T21:48:38.662Z,39.00
2022-12-09T21:51:25.181Z,30.98
2022-12-09T21:54:10.938Z,37.95
2022-12-09T21:56:56.215Z,26.58
2022-12-09T21:59:41.566Z,28.95
2022-12-09T22:02:27.015Z,32.85
2022-12-09T22:05:12.554Z,32.53
2022-12-09T22:07:57.943Z,24.83
2022-12-09T22:10:43.488Z,38.88
2022-12-09T22:13:29.328Z,30.17
2022-12-09T22:16:18.610Z,29.75
2022-12-09T22:19:06.444Z,37.85
2022-12-09T22:21:52.177Z,31.40
2022-12-09T22:24:37.624Z,29.13
2022-12-09T22:27:23.491Z,32.80
2022-12-09T22:30:09.766Z,22.75
2022-12-09T22:32:55.209Z,33.05
2022-12-09T22:35:40.703Z,30.48
2022-12-09T22:38:27.480Z,36.08
2022-12-09T22:41:17.971Z,27.20
2022-12-09T22:44:04.390Z,43.25
2022-12-09T22:46:50.093Z,29.67
2022-12-09T22:49:36.450Z,24.13
2022-12-09T22:52:22.177Z,33.08
2022-12-09T22:55:08.321Z,28.13
2022-12-09T22:57:53.666Z,24.50
2022-12-09T23:00:41.892Z,35.08
2022-12-09T23:03:27.769Z,26.88
2022-12-09T23:06:14.712Z,22.88
2022-12-09T23:09:00.036Z,23.25
2022-12-09T23:11:45.401Z,31.92
2022-12-09T23:14:31.080Z,35.10
2022-12-09T23:17:16.670Z,20.90
2022-12-09T23:20:01.971Z,23.70
2022-12-09T23:22:47.610Z,25.80
2022-12-09T23:25:33.942Z,17.83
2022-12-09T23:28:19.704Z,19.30
2022-12-09T23:31:07.277Z,21.30
2022-12-09T23:33:53.316Z,21.00
2022-12-09T23:36:41.443Z,20.17
2022-12-09T23:39:27.257Z,23.70
2022-12-09T23:42:12.532Z,19.88
2022-12-09T23:44:57.928Z,17.90
2022-12-09T23:47:43.192Z,21.15
2022-12-09T23:50:28.471Z,22.73
2022-12-09T23:53:13.890Z,20.83
2022-12-09T23:55:59.210Z,19.05
2022-12-09T23:58:45.160Z,17.25
